Terminal Aerodrome Forecast
Issued by NWS

Home | Current Version | Previous Version | Text Only | Print | Product List | Glossary On
Versions: 1 2 3 4 5 6 7 8 9 10 11 12 13 14 15 16 17 18 19 20 21 22 23
000
FTUS42 KMFL 280259 AAC
TAFTMB
TAF AMD
KTMB 280259Z 2803/2824 13004KT P6SM FEW020
     FM281400 13010KT P6SM SCT030 SCT060
     FM281700 11016KT P6SM SCT025 SCT050=

USA.gov is the U.S. government's official web portal to all federal, state and local government web resources and services.